Time;durP1;ratioP1;P1;durP2;ratioP2;P2;SDS_P1;SDS_P2;PMS_P1;PMS_P2;Temp;Humidity;BMP_temperature;BMP_pressure;BME280_temperature;BME280_humidity;BME280_pressure;Samples;Min_cycle;Max_cycle;Signal;HPM_P1;HPM_P2
2022/07/24 06:32:28;;;;;;;;;18.25;16.25;;;;;26.67;100.00;101525.28;5928515;23;46712;-90
2022/07/24 06:34:54;;;;;;;;;18.75;16.00;;;;;26.72;100.00;101522.84;4904393;28;46508;-90
2022/07/24 06:37:20;;;;;;;;;13.50;13.50;;;;;26.77;100.00;101521.22;4905842;29;44970;-90
2022/07/24 06:39:52;;;;;;;;;17.50;17.50;;;;;26.91;100.00;101522.25;4908375;29;44791;-89
2022/07/24 06:42:25;;;;;;;;;16.00;16.00;;;;;27.04;100.00;101516.09;4888899;29;44851;-90
2022/07/24 07:57:16;;;;;;;;;19.20;17.20;;;;;28.08;100.00;101511.91;3138476;26;45357;-92
2022/07/24 07:59:42;;;;;;;;;19.50;19.50;;;;;28.03;100.00;101505.34;4917152;28;44844;-93
2022/07/24 08:02:08;;;;;;;;;18.50;17.00;;;;;27.88;100.00;101498.09;4936364;28;44934;-93
2022/07/24 08:04:42;;;;;;;;;24.60;21.60;;;;;27.73;100.00;101497.34;4938001;28;45501;-93
2022/07/24 08:10:12;;;;;;;;;22.50;21.75;;;;;27.81;100.00;101493.63;4928779;28;44936;-94
2022/07/24 08:12:46;;;;;;;;;17.50;17.50;;;;;27.88;100.00;101494.53;4922761;28;45184;-93
2022/07/24 08:15:23;;;;;;;;;17.80;17.20;;;;;27.99;100.00;101498.59;4922788;28;44615;-93
2022/07/24 08:20:37;;;;;;;;;21.50;18.25;;;;;28.11;100.00;101489.66;5089304;23;46093;-91
2022/07/24 08:23:11;;;;;;;;;21.25;19.50;;;;;28.15;100.00;101481.91;4955710;28;45189;-92
2022/07/24 08:25:55;;;;;;;;;15.40;15.40;;;;;28.17;100.00;101485.25;4962065;28;44614;-92
2022/07/24 08:28:50;;;;;;;;;18.20;16.20;;;;;28.17;100.00;101475.19;4965902;28;44646;-91
2022/07/24 08:31:30;;;;;;;;;16.75;16.75;;;;;28.20;100.00;101473.94;4964437;28;44848;-91
2022/07/24 08:34:00;;;;;;;;;21.20;17.80;;;;;28.32;100.00;101479.69;4963245;28;45135;-91
2022/07/24 08:36:50;;;;;;;;;18.20;17.40;;;;;28.30;100.00;101477.16;4959980;28;44620;-92
2022/07/24 08:39:19;;;;;;;;;20.20;19.20;;;;;28.40;100.00;101479.56;4934379;28;44779;-91
2022/07/24 08:42:03;;;;;;;;;14.40;13.80;;;;;28.50;100.00;101476.44;4951840;28;44755;-92
2022/07/24 08:44:53;;;;;;;;;18.60;17.80;;;;;28.61;100.00;101468.50;4950275;28;44956;-92
2022/07/24 08:47:38;;;;;;;;;20.00;16.60;;;;;28.71;100.00;101470.00;4956710;28;45111;-92
2022/07/24 08:50:37;;;;;;;;;21.60;16.60;;;;;28.81;100.00;101467.72;4951036;28;44700;-92
2022/07/24 08:53:49;;;;;;;;;16.40;15.20;;;;;28.72;100.00;101469.84;4953761;28;44906;-92
2022/07/24 08:56:29;;;;;;;;;22.00;19.00;;;;;28.80;100.00;101463.31;4967791;28;46517;-92
2022/07/24 08:59:17;;;;;;;;;19.00;17.20;;;;;28.81;100.00;101454.91;4953708;28;44760;-92
2022/07/24 09:02:03;;;;;;;;;16.20;15.20;;;;;28.88;100.00;101453.03;4956819;28;44663;-91
2022/07/24 09:10:07;;;;;;;;;12.20;12.20;;;;;28.82;100.00;101440.19;5148208;23;45808;-92
2022/07/24 09:12:44;;;;;;;;;14.60;13.60;;;;;28.89;100.00;101446.50;4881282;29;44932;-90
2022/07/24 09:15:26;;;;;;;;;13.60;13.60;;;;;28.99;100.00;101437.09;4897956;29;44909;-91
2022/07/24 09:18:04;;;;;;;;;11.00;10.60;;;;;29.05;94.33;101439.00;4911981;29;45230;-91
2022/07/24 09:20:54;;;;;;;;;15.60;12.00;;;;;29.01;89.42;101443.19;4911601;29;44826;-92
2022/07/24 09:24:14;;;;;;;;;13.40;12.40;;;;;29.15;92.22;101431.22;4917758;29;44861;-91
2022/07/24 09:26:44;;;;;;;;;12.25;12.25;;;;;29.17;91.60;101430.00;4896434;29;44855;-88
2022/07/24 09:29:12;;;;;;;;;12.00;12.00;;;;;29.34;91.59;101424.94;4909635;29;45159;-88
2022/07/24 09:31:56;;;;;;;;;10.40;10.40;;;;;29.46;92.23;101422.44;4903583;29;44824;-89
2022/07/24 09:34:24;;;;;;;;;12.00;12.00;;;;;29.49;92.20;101427.47;4909046;29;45262;-88
2022/07/24 09:37:02;;;;;;;;;11.60;11.60;;;;;29.56;90.89;101424.78;4912499;29;44832;-88
2022/07/24 09:39:34;;;;;;;;;11.80;9.20;;;;;29.67;89.40;101416.75;4918394;29;45232;-89
2022/07/24 09:45:22;;;;;;;;;11.60;10.80;;;;;29.79;88.89;101406.00;4893828;29;44694;-91
2022/07/24 09:47:55;;;;;;;;;7.40;7.40;;;;;29.81;90.07;101398.41;4892078;29;44941;-91
2022/07/24 09:50:29;;;;;;;;;10.40;9.80;;;;;29.72;83.72;101399.69;4876092;29;45276;-91
2022/07/24 09:53:06;;;;;;;;;10.00;8.20;;;;;29.75;85.90;101398.44;4860918;29;44665;-91
2022/07/24 09:55:41;;;;;;;;;12.80;12.60;;;;;29.72;80.28;101407.06;4874489;29;45415;-91
2022/07/24 09:58:38;;;;;;;;;12.00;9.20;;;;;29.76;85.26;101392.72;4888132;29;44779;-91
2022/07/24 10:01:06;;;;;;;;;8.00;8.00;;;;;29.94;85.12;101398.38;4892077;29;45287;-91
2022/07/24 10:03:40;;;;;;;;;7.00;6.20;;;;;29.99;81.88;101399.63;4875274;29;45244;-92
2022/07/24 10:06:09;;;;;;;;;12.00;11.40;;;;;29.91;80.82;101396.06;4895173;29;44677;-90
2022/07/24 10:08:38;;;;;;;;;8.40;8.40;;;;;29.88;80.18;101391.03;4891501;29;44814;-90
2022/07/24 10:11:04;;;;;;;;;12.40;9.40;;;;;29.75;79.64;101392.94;4887936;29;46808;-91
2022/07/24 10:13:34;;;;;;;;;10.20;10.20;;;;;29.73;81.77;101393.13;4892353;29;44749;-90
2022/07/24 10:16:09;;;;;;;;;8.80;8.60;;;;;29.90;80.51;101388.91;4894243;29;44636;-90
2022/07/24 10:18:46;;;;;;;;;11.60;11.20;;;;;29.99;81.99;101388.69;4888670;29;44905;-89
2022/07/24 10:21:22;;;;;;;;;11.60;11.00;;;;;30.13;83.47;101393.09;4886290;29;46728;-90
2022/07/24 10:24:06;;;;;;;;;10.80;9.80;;;;;30.30;80.85;101399.75;4887165;29;44822;-91
2022/07/24 10:27:06;;;;;;;;;10.60;9.00;;;;;30.52;80.12;101388.50;4887722;29;44720;-91
2022/07/24 10:29:38;;;;;;;;;9.60;9.60;;;;;30.64;76.75;101384.00;4892106;29;44749;-91
2022/07/24 10:32:04;;;;;;;;;10.40;9.00;;;;;30.68;75.98;101391.56;4892324;29;46788;-89
2022/07/24 10:34:56;;;;;;;;;12.60;9.80;;;;;30.72;68.88;101394.75;4888124;29;44751;-90
2022/07/24 10:37:39;;;;;;;;;10.80;9.40;;;;;30.78;73.38;101379.31;4878401;29;44892;-90
2022/07/24 10:40:29;;;;;;;;;8.40;8.40;;;;;30.87;71.23;101377.97;4888579;29;44818;-91
2022/07/24 10:43:12;;;;;;;;;9.00;7.80;;;;;30.87;72.12;101384.31;4889825;29;45421;-91
2022/07/24 10:45:44;;;;;;;;;9.80;9.20;;;;;30.73;69.42;101377.22;4905552;29;44832;-90
2022/07/24 10:48:26;;;;;;;;;10.40;9.20;;;;;30.87;70.88;101376.06;4891306;29;44690;-90
2022/07/24 10:51:05;;;;;;;;;7.00;7.00;;;;;31.01;72.48;101367.75;4894342;29;44683;-90
2022/07/24 10:53:49;;;;;;;;;12.60;9.20;;;;;31.09;73.26;101360.09;4898552;29;45289;-90
2022/07/24 10:56:59;;;;;;;;;12.80;11.00;;;;;31.19;72.81;101363.19;4908338;29;44612;-92
2022/07/24 10:59:43;;;;;;;;;11.20;11.20;;;;;31.15;69.25;101350.97;4919924;29;44807;-92
2022/07/24 11:02:42;;;;;;;;;4.60;4.60;;;;;30.83;69.09;101341.06;4913291;29;44768;-92
2022/07/24 11:05:45;;;;;;;;;9.00;9.00;;;;;30.91;70.19;101347.13;4881860;29;45655;-92
2022/07/24 11:08:22;;;;;;;;;9.00;9.00;;;;;31.05;67.09;101339.66;4898419;29;44679;-92
2022/07/24 11:14:29;;;;;;;;;10.00;10.00;;;;;31.39;69.66;101342.97;4902561;29;44754;-92
2022/07/24 11:20:43;;;;;;;;;10.20;8.20;;;;;31.79;65.81;101326.91;4903129;29;44808;-91
2022/07/24 11:23:34;;;;;;;;;10.80;10.00;;;;;31.78;66.26;101333.47;4898286;29;44647;-92
2022/07/24 11:26:46;;;;;;;;;11.00;10.00;;;;;31.71;63.60;101325.28;4899116;29;44858;-92
2022/07/24 11:29:35;;;;;;;;;8.80;8.80;;;;;31.84;64.28;101329.00;4907545;29;45030;-92
2022/07/24 11:32:20;;;;;;;;;11.00;11.00;;;;;31.88;63.55;101319.22;4904094;29;44708;-93
2022/07/24 11:35:01;;;;;;;;;10.00;10.00;;;;;31.96;65.57;101327.16;4882496;29;44593;-92
2022/07/24 11:37:49;;;;;;;;;9.60;9.60;;;;;31.88;62.20;101316.50;4898581;29;44873;-92
2022/07/24 11:40:32;;;;;;;;;12.00;10.20;;;;;31.43;64.04;101314.00;4898554;29;45005;-92
2022/07/24 11:43:08;;;;;;;;;13.40;12.20;;;;;31.60;65.45;101306.00;4903016;29;44757;-93
2022/07/24 11:46:02;;;;;;;;;9.60;8.00;;;;;31.78;63.69;101299.66;4910512;29;45341;-93
2022/07/24 11:49:14;;;;;;;;;10.60;10.60;;;;;31.94;65.38;101302.66;4908607;29;44855;-92
2022/07/24 11:52:03;;;;;;;;;8.00;8.00;;;;;32.03;62.31;101288.59;4905388;29;44959;-92
2022/07/24 11:55:10;;;;;;;;;;;;;;;;;;;;;
2022/07/24 11:57:59;;;;;;;;;10.40;8.60;;;;;32.36;63.10;101289.03;4908035;29;67992;-91
2022/07/24 12:04:21;;;;;;;;;7.60;6.20;;;;;32.57;57.93;101286.81;4911006;29;44862;-92
2022/07/24 12:13:15;;;;;;;;;11.00;10.00;;;;;32.80;55.69;101272.25;4967988;23;44833;-93
2022/07/24 12:19:23;;;;;;;;;8.80;7.80;;;;;32.90;54.30;101267.88;4830253;29;44808;-92
2022/07/24 12:22:04;;;;;;;;;9.40;9.00;;;;;32.94;57.33;101260.00;4802302;29;44835;-92
2022/07/24 12:25:01;;;;;;;;;6.60;6.60;;;;;33.07;58.14;101253.38;4819875;29;44779;-93
2022/07/24 12:34:22;;;;;;;;;7.20;7.20;;;;;33.40;53.79;101241.75;4787063;29;44676;-91
2022/07/24 12:37:16;;;;;;;;;8.40;8.40;;;;;33.41;53.69;101233.28;4788850;29;45006;-93
2022/07/24 12:39:53;;;;;;;;;7.40;7.40;;;;;33.40;53.47;101231.56;4789469;29;45120;-92
2022/07/24 12:42:54;;;;;;;;;;;;;;;;;;;;;
2022/07/24 12:45:47;;;;;;;;;9.00;8.80;;;;;33.54;53.84;101223.06;4786200;29;68028;-93
2022/07/24 12:48:33;;;;;;;;;10.40;9.20;;;;;33.73;54.94;101219.06;4799234;29;44844;-92
2022/07/24 12:51:28;;;;;;;;;3.00;3.00;;;;;33.82;50.48;101214.00;4797138;29;45412;-93
2022/07/24 12:54:27;;;;;;;;;9.80;8.00;;;;;33.94;50.95;101214.78;4796935;29;44853;-93
2022/07/24 13:02:28;;;;;;;;;7.40;7.40;;;;;34.16;46.14;101204.75;4263588;26;45134;-91
2022/07/24 13:04:59;;;;;;;;;8.20;8.20;;;;;34.43;46.04;101202.22;4959585;28;44729;-91
2022/07/24 13:07:28;;;;;;;;;7.80;6.80;;;;;34.71;44.93;101201.31;4952742;28;44776;-91
2022/07/24 13:09:57;;;;;;;;;9.00;8.40;;;;;34.94;43.92;101199.44;4955349;28;44742;-91
2022/07/24 13:12:28;;;;;;;;;8.00;8.00;;;;;35.18;44.66;101187.13;4951863;28;44989;-91
2022/07/24 13:14:57;;;;;;;;;8.60;8.60;;;;;35.31;42.01;101194.22;4951452;28;44705;-92
2022/07/24 13:17:23;;;;;;;;;4.40;4.40;;;;;35.42;43.45;101196.00;4961541;28;44593;-91
2022/07/24 13:19:52;;;;;;;;;8.40;6.20;;;;;35.52;43.39;101184.28;4935008;28;44916;-91
2022/07/24 13:22:19;;;;;;;;;8.40;8.40;;;;;35.81;40.80;101182.13;4945227;28;46681;-93
2022/07/24 13:24:47;;;;;;;;;6.20;6.20;;;;;36.09;42.95;101169.16;4925131;28;44801;-91
2022/07/24 13:27:13;;;;;;;;;6.80;6.80;;;;;36.32;39.39;101179.06;4942702;28;45383;-91
2022/07/24 13:29:39;;;;;;;;;6.80;6.80;;;;;36.47;37.12;101171.75;4944374;28;44911;-91
2022/07/24 13:32:05;;;;;;;;;8.25;8.25;;;;;36.47;44.41;101160.66;4946691;28;45020;-91
2022/07/24 13:34:32;;;;;;;;;6.80;6.80;;;;;36.58;41.03;101169.88;4943312;28;44747;-91
2022/07/24 13:37:01;;;;;;;;;8.00;8.00;;;;;36.65;35.69;101159.44;4948310;28;44812;-91
2022/07/24 13:39:26;;;;;;;;;6.00;6.00;;;;;36.62;36.62;101159.13;4945806;28;44942;-91
2022/07/24 13:41:54;;;;;;;;;10.00;6.75;;;;;36.79;40.19;101146.75;4943093;28;45002;-92
2022/07/24 13:44:19;;;;;;;;;7.00;6.20;;;;;37.00;38.38;101142.22;4928076;28;44941;-92
2022/07/24 13:46:45;;;;;;;;;8.75;8.25;;;;;37.10;35.42;101148.91;4928483;28;44779;-92
2022/07/24 13:49:14;;;;;;;;;8.25;7.50;;;;;36.73;38.27;101135.91;4941155;28;45442;-90
2022/07/24 13:51:39;;;;;;;;;7.60;7.60;;;;;36.57;35.47;101139.69;4924040;28;45449;-91
2022/07/24 13:54:05;;;;;;;;;10.25;8.75;;;;;36.75;37.16;101144.81;4927512;28;45281;-92
2022/07/24 13:56:31;;;;;;;;;7.00;7.00;;;;;36.69;38.12;101135.59;4928497;28;44665;-91
2022/07/24 13:59:00;;;;;;;;;9.50;9.50;;;;;37.07;38.22;101130.88;4925310;28;44920;-92
2022/07/24 14:01:28;;;;;;;;;7.00;7.00;;;;;37.45;37.24;101121.34;4925461;28;46345;-92
2022/07/24 14:04:46;;;;;;;;;8.40;7.00;;;;;37.86;37.31;101124.25;4936571;28;44752;-95
2022/07/24 14:11:11;;;;;;;;;9.80;9.80;;;;;38.78;34.32;101113.97;4938363;28;44760;-95
2022/07/24 14:13:48;;;;;;;;;6.40;6.40;;;;;38.85;37.34;101088.66;4922684;28;45264;-94
2022/07/24 14:16:29;;;;;;;;;8.20;8.20;;;;;39.08;34.97;101104.69;4943273;28;44622;-94
2022/07/24 14:21:40;;;;;;;;;9.00;9.00;;;;;39.39;35.12;101092.59;5124830;23;45417;-94
2022/07/24 14:24:28;;;;;;;;;6.40;6.40;;;;;39.56;32.11;101090.28;4901619;29;44971;-94
2022/07/24 14:27:04;;;;;;;;;6.00;6.00;;;;;39.57;32.24;101084.41;4901265;29;44826;-92
2022/07/24 14:29:47;;;;;;;;;7.00;7.00;;;;;39.18;30.71;101070.44;4901961;29;44842;-94
2022/07/24 14:32:22;;;;;;;;;8.60;8.20;;;;;38.85;36.95;101066.41;4882698;29;44942;-94
2022/07/24 14:35:06;;;;;;;;;9.00;9.00;;;;;39.05;33.80;101068.28;4905226;29;44961;-90
2022/07/24 14:37:36;;;;;;;;;7.60;7.60;;;;;39.40;32.37;101058.09;4905136;29;44659;-90
2022/07/24 14:40:04;;;;;;;;;8.20;8.20;;;;;39.42;34.95;101050.31;4886197;29;44828;-91
2022/07/24 14:42:45;;;;;;;;;9.20;7.80;;;;;39.38;33.48;101052.84;4903878;29;44631;-94
2022/07/24 14:45:29;;;;;;;;;8.20;6.80;;;;;39.56;31.78;101054.94;4901458;29;45424;-92
2022/07/24 14:48:19;;;;;;;;;6.60;6.60;;;;;39.93;32.73;101047.16;4900732;29;45292;-93
2022/07/24 14:50:48;;;;;;;;;8.00;8.00;;;;;39.91;31.03;101041.06;4880162;29;44786;-93
2022/07/24 14:53:23;;;;;;;;;9.00;7.00;;;;;39.41;31.10;101043.94;4915224;29;44932;-92
2022/07/24 14:55:57;;;;;;;;;8.60;7.40;;;;;39.36;32.07;101048.66;4910046;29;45673;-93
2022/07/24 14:58:28;;;;;;;;;8.00;8.00;;;;;39.68;31.79;101043.47;4891599;29;44654;-93
2022/07/24 15:00:57;;;;;;;;;9.00;7.80;;;;;40.00;31.63;101044.88;4892753;29;44644;-94
2022/07/24 15:03:23;;;;;;;;;9.60;9.20;;;;;40.31;31.68;101043.47;4916097;29;44901;-93
2022/07/24 15:06:01;;;;;;;;;2.75;2.75;;;;;40.56;31.89;101030.41;4902385;29;45799;-93
2022/07/24 15:08:28;;;;;;;;;7.60;7.60;;;;;40.97;31.49;101027.16;4913119;29;44782;-93
2022/07/24 15:10:56;;;;;;;;;6.20;6.00;;;;;41.11;30.45;101025.28;4891188;29;44702;-93
2022/07/24 15:13:25;;;;;;;;;8.40;8.40;;;;;41.13;30.50;101023.00;4909341;29;44806;-92
2022/07/24 15:15:55;;;;;;;;;9.20;6.80;;;;;41.17;30.51;101020.47;4891174;29;45109;-93
2022/07/24 15:18:22;;;;;;;;;6.80;6.80;;;;;41.38;30.08;101027.41;4890527;29;44639;-93
2022/07/24 15:20:58;;;;;;;;;8.40;8.40;;;;;41.50;29.46;101025.00;4891247;29;44716;-93
2022/07/24 15:23:27;;;;;;;;;6.75;6.75;;;;;41.53;28.14;101021.59;4904017;29;44931;-93
2022/07/24 15:25:54;;;;;;;;;8.40;6.80;;;;;41.26;27.61;101013.09;4906741;29;45012;-93
2022/07/24 15:28:23;;;;;;;;;8.00;8.00;;;;;40.25;29.79;101007.63;4909083;29;44553;-93
2022/07/24 15:30:52;;;;;;;;;7.00;7.00;;;;;40.53;30.09;101015.16;4913042;29;44821;-93
2022/07/24 15:33:17;;;;;;;;;7.25;7.25;;;;;40.93;30.05;101004.59;4923489;28;44873;-93
2022/07/24 15:35:46;;;;;;;;;10.75;8.50;;;;;41.20;29.42;101006.75;4924766;28;44957;-93
2022/07/24 15:38:17;;;;;;;;;7.80;7.80;;;;;41.58;29.52;101006.72;4919128;29;44636;-93
2022/07/24 15:40:46;;;;;;;;;8.40;7.20;;;;;41.99;29.27;100998.50;4921077;29;44755;-94
2022/07/24 15:43:14;;;;;;;;;8.50;8.00;;;;;42.15;28.20;100995.41;4915227;28;44865;-93
2022/07/24 15:45:40;;;;;;;;;8.80;8.20;;;;;42.03;28.13;100999.56;4919265;28;45239;-94
2022/07/24 15:48:09;;;;;;;;;7.60;7.60;;;;;42.00;29.71;100989.00;4888213;29;44765;-93
2022/07/24 15:50:37;;;;;;;;;8.20;8.00;;;;;41.84;27.57;100991.25;4918296;29;44656;-93
2022/07/24 15:53:09;;;;;;;;;7.00;7.00;;;;;41.03;27.13;100979.38;4918862;29;44836;-93
2022/07/24 15:55:37;;;;;;;;;7.20;7.20;;;;;41.12;29.19;100976.75;4914930;29;45085;-93
2022/07/24 15:58:03;;;;;;;;;12.20;9.60;;;;;41.33;29.03;100966.91;4908703;29;44800;-92
2022/07/24 16:00:29;;;;;;;;;7.20;7.20;;;;;41.51;28.07;100962.47;4909925;29;44874;-93
2022/07/24 16:02:55;;;;;;;;;6.25;6.25;;;;;41.82;29.11;100968.38;4910844;29;44900;-93
2022/07/24 16:05:22;;;;;;;;;5.80;5.80;;;;;42.06;27.49;100971.00;4919679;28;45056;-92
2022/07/24 16:07:50;;;;;;;;;5.80;5.80;;;;;42.40;27.48;100963.38;4928059;28;44748;-92
2022/07/24 16:10:18;;;;;;;;;7.80;7.80;;;;;42.67;27.85;100956.97;4909674;29;44750;-92
2022/07/24 16:13:14;;;;;;;;;8.25;8.25;;;;;42.71;25.86;100961.63;4922949;28;44768;-92
2022/07/24 16:15:50;;;;;;;;;7.25;6.75;;;;;43.01;27.78;100959.28;4910396;29;45033;-92
2022/07/24 16:18:20;;;;;;;;;8.60;7.60;;;;;43.36;26.92;100950.03;4913595;28;44681;-93
2022/07/24 16:20:56;;;;;;;;;9.00;7.60;;;;;43.67;26.68;100946.50;4911160;28;44717;-94
2022/07/24 16:23:32;;;;;;;;;6.50;6.50;;;;;43.82;27.04;100934.91;4897195;29;44798;-93
2022/07/24 16:26:08;;;;;;;;;7.00;7.00;;;;;44.02;26.40;100929.88;4918343;29;46973;-92
2022/07/24 16:28:34;;;;;;;;;8.00;7.00;;;;;44.06;25.69;100928.91;4926088;28;44794;-93
2022/07/24 16:31:02;;;;;;;;;7.40;7.40;;;;;43.94;24.68;100923.09;4923496;28;44820;-93
2022/07/24 16:33:28;;;;;;;;;7.00;6.25;;;;;43.30;25.11;100919.72;4913639;28;44937;-92
2022/07/24 16:36:02;;;;;;;;;8.00;8.00;;;;;43.12;25.28;100915.97;4916546;29;45056;-92
2022/07/24 16:38:31;;;;;;;;;6.60;6.60;;;;;43.15;25.49;100909.75;4908360;29;44753;-93
2022/07/24 16:40:57;;;;;;;;;7.40;7.40;;;;;43.18;26.40;100909.13;4909340;29;44774;-93
2022/07/24 16:43:26;;;;;;;;;8.25;8.25;;;;;43.27;26.94;100907.19;4916291;29;44919;-95
2022/07/24 16:45:57;;;;;;;;;9.40;6.80;;;;;43.35;24.76;100902.81;4922193;28;46542;-92
2022/07/24 16:48:24;;;;;;;;;5.40;5.40;;;;;43.23;25.85;100896.94;4917397;29;44675;-92
2022/07/24 16:50:50;;;;;;;;;8.60;6.40;;;;;43.15;27.28;100898.56;4912114;29;44829;-93
2022/07/24 16:53:17;;;;;;;;;7.00;7.00;;;;;43.38;27.14;100892.97;4910679;29;44860;-92
2022/07/24 16:55:42;;;;;;;;;6.00;6.00;;;;;43.65;26.74;100894.75;4910033;29;45100;-92
2022/07/24 16:58:09;;;;;;;;;7.00;7.00;;;;;43.84;26.67;100895.38;4912776;29;44797;-93
2022/07/24 17:00:34;;;;;;;;;9.00;7.80;;;;;43.77;26.53;100883.81;4891467;29;44817;-90
2022/07/24 17:03:00;;;;;;;;;6.25;6.25;;;;;43.85;25.32;100888.63;4907414;29;44870;-90
2022/07/24 17:05:25;;;;;;;;;7.50;7.50;;;;;43.82;26.05;100883.69;4906168;28;45003;-90
2022/07/24 17:07:51;;;;;;;;;15.75;14.50;;;;;43.98;25.94;100873.69;4903429;29;44795;-91
2022/07/24 17:10:17;;;;;;;;;4.25;4.25;;;;;44.08;25.49;100875.38;4904612;29;44796;-90
2022/07/24 17:12:48;;;;;;;;;7.25;7.25;;;;;44.30;24.93;100871.69;4908853;29;45373;-91
2022/07/24 17:15:14;;;;;;;;;9.25;9.25;;;;;44.44;29.84;100863.09;4912971;29;45339;-91
2022/07/24 17:18:02;;;;;;;;;7.80;6.60;;;;;44.28;25.57;100866.38;4918467;28;44684;-91
2022/07/24 17:20:31;;;;;;;;;7.00;6.75;;;;;44.20;24.85;100855.13;4919173;28;44869;-89
2022/07/24 17:22:59;;;;;;;;;8.00;7.50;;;;;44.06;24.74;100858.06;4919385;28;44774;-88
2022/07/24 17:25:25;;;;;;;;;7.00;7.00;;;;;44.10;24.70;100856.25;4897472;29;45180;-90
2022/07/24 17:28:02;;;;;;;;;9.50;8.50;;;;;44.17;24.75;100858.59;4909282;29;44613;-91
2022/07/24 17:30:31;;;;;;;;;6.75;6.75;;;;;44.37;24.11;100858.00;4893969;29;44942;-90
2022/07/24 17:32:57;;;;;;;;;8.00;7.00;;;;;44.52;24.22;100849.09;4893434;29;44865;-90
2022/07/24 17:35:43;;;;;;;;;6.00;6.00;;;;;44.29;24.65;100841.97;4894100;29;45162;-89
2022/07/24 17:38:10;;;;;;;;;6.40;6.40;;;;;44.29;25.77;100840.00;4890211;29;44829;-90
2022/07/24 17:40:38;;;;;;;;;8.25;8.25;;;;;44.25;24.90;100844.63;4903979;29;44657;-91
2022/07/24 17:43:26;;;;;;;;;4.00;4.00;;;;;44.07;24.05;100843.72;4907625;28;44857;-93
2022/07/24 17:45:52;;;;;;;;;6.00;6.00;;;;;44.16;26.09;100843.75;4892682;29;45111;-90
2022/07/24 17:48:17;;;;;;;;;9.50;7.50;;;;;44.13;24.63;100836.00;4914939;29;45001;-91
2022/07/24 17:50:49;;;;;;;;;8.50;8.00;;;;;44.08;25.18;100842.56;4907122;29;44762;-91
2022/07/24 17:53:15;;;;;;;;;16.50;16.00;;;;;44.07;25.33;100832.53;4913650;29;44757;-91
2022/07/24 17:55:41;;;;;;;;;7.00;7.00;;;;;44.10;24.41;100839.44;4916667;29;44973;-91
2022/07/24 17:58:28;;;;;;;;;8.50;8.50;;;;;44.00;23.99;100836.94;4902958;29;44696;-91
2022/07/24 18:00:54;;;;;;;;;6.80;6.80;;;;;43.94;25.34;100829.84;4885363;29;45488;-90
2022/07/24 18:03:26;;;;;;;;;8.25;8.25;;;;;43.91;24.74;100836.94;4898475;28;44900;-91
2022/07/24 18:05:54;;;;;;;;;9.75;8.00;;;;;43.65;24.87;100833.19;4921621;28;45383;-91
2022/07/24 18:08:20;;;;;;;;;8.20;8.20;;;;;43.48;24.75;100831.16;4929336;28;45481;-91
2022/07/24 18:10:49;;;;;;;;;10.25;8.25;;;;;43.30;25.72;100831.03;4912269;28;45235;-91
2022/07/24 18:13:14;;;;;;;;;7.00;7.00;;;;;43.17;24.86;100831.91;4924393;28;44765;-89
2022/07/24 18:15:40;;;;;;;;;8.00;6.75;;;;;43.02;25.70;100830.34;4927587;28;47023;-91
2022/07/24 18:18:06;;;;;;;;;8.50;8.50;;;;;42.81;25.46;100832.81;4914370;28;44814;-92
2022/07/24 18:20:32;;;;;;;;;7.80;7.80;;;;;42.66;26.03;100829.56;4930975;28;44848;-90
2022/07/24 18:23:01;;;;;;;;;7.75;7.75;;;;;42.52;26.04;100833.19;4939791;28;44916;-91
2022/07/24 18:25:27;;;;;;;;;6.00;6.00;;;;;42.37;26.58;100829.94;4936088;28;46065;-91
2022/07/24 18:27:53;;;;;;;;;9.00;7.00;;;;;42.17;27.29;100822.81;4936139;28;44592;-90
2022/07/24 18:30:24;;;;;;;;;8.40;8.40;;;;;41.95;26.94;100831.94;4933641;28;44820;-93
2022/07/24 18:32:50;;;;;;;;;8.25;8.25;;;;;41.69;26.45;100826.00;4929656;28;44866;-92
2022/07/24 18:35:20;;;;;;;;;5.00;5.00;;;;;41.52;26.82;100823.81;4933012;28;45006;-93
2022/07/24 18:37:48;;;;;;;;;9.00;8.00;;;;;41.27;26.95;100828.72;4939232;28;44911;-92
2022/07/24 18:40:17;;;;;;;;;9.00;9.00;;;;;41.12;27.22;100822.59;4938962;28;44672;-92
2022/07/24 18:42:54;;;;;;;;;10.25;10.25;;;;;40.98;27.91;100823.34;4952940;28;44937;-93
2022/07/24 18:45:20;;;;;;;;;8.75;7.25;;;;;40.72;28.49;100816.53;4935182;28;45262;-92
2022/07/24 18:47:51;;;;;;;;;7.75;7.00;;;;;40.47;28.20;100812.97;4938504;28;44770;-94
2022/07/24 18:50:33;;;;;;;;;7.40;7.40;;;;;40.29;28.92;100814.63;4939441;28;45258;-93
2022/07/24 18:53:07;;;;;;;;;10.75;8.25;;;;;40.03;29.05;100824.38;4958217;28;44868;-94
2022/07/24 18:55:42;;;;;;;;;7.25;7.25;;;;;39.76;28.41;100822.22;4940423;28;45280;-94
2022/07/24 18:58:07;;;;;;;;;9.40;8.00;;;;;39.57;30.01;100813.78;4935496;28;44745;-90
2022/07/24 19:00:34;;;;;;;;;7.75;7.75;;;;;39.39;30.24;100808.97;4944054;28;44749;-91
2022/07/24 19:03:00;;;;;;;;;10.25;9.25;;;;;39.10;30.65;100812.53;4948560;28;44825;-90
2022/07/24 19:05:28;;;;;;;;;8.25;8.25;;;;;38.78;30.89;100807.53;4926496;28;44978;-89
2022/07/24 19:07:53;;;;;;;;;10.60;10.60;;;;;38.47;31.19;100812.44;4923362;28;44873;-89
2022/07/24 19:10:20;;;;;;;;;10.50;9.00;;;;;38.15;31.79;100810.94;4923641;28;44830;-90
2022/07/24 19:12:52;;;;;;;;;9.25;9.00;;;;;37.78;32.01;100808.56;4945532;28;45322;-93
2022/07/24 19:15:28;;;;;;;;;12.50;11.75;;;;;37.41;32.79;100812.50;4940375;28;45290;-93
2022/07/24 19:18:09;;;;;;;;;10.40;9.20;;;;;36.90;33.34;100800.59;4931753;28;44690;-92
2022/07/24 19:20:43;;;;;;;;;12.60;11.20;;;;;36.25;34.94;100798.22;4934774;28;44780;-94
2022/07/24 19:23:12;;;;;;;;;9.50;8.50;;;;;35.67;35.77;100794.63;4929453;28;44755;-92
2022/07/24 19:25:44;;;;;;;;;10.00;10.00;;;;;35.14;36.88;100793.69;4947213;28;45575;-93
2022/07/24 19:28:12;;;;;;;;;13.20;13.20;;;;;34.67;38.28;100794.41;4931746;28;44745;-88
2022/07/24 19:30:37;;;;;;;;;11.00;11.00;;;;;34.29;39.79;100791.75;4932660;28;44739;-89
2022/07/24 19:33:04;;;;;;;;;10.25;9.00;;;;;33.83;41.10;100777.38;4926515;28;44872;-89
2022/07/24 19:35:30;;;;;;;;;12.00;11.00;;;;;33.44;42.66;100785.66;4927034;28;45228;-89
2022/07/24 19:37:55;;;;;;;;;12.00;9.00;;;;;33.10;44.85;100784.81;4930230;28;44726;-89
2022/07/24 19:40:21;;;;;;;;;8.75;8.75;;;;;32.80;46.01;100794.22;4924164;28;44891;-89
2022/07/24 19:42:46;;;;;;;;;26.25;26.25;;;;;32.52;47.35;100794.25;4927357;28;44771;-89
2022/07/24 19:45:12;;;;;;;;;54.00;43.33;;;;;32.27;49.18;100789.91;4913490;28;46650;-89
2022/07/24 19:47:38;;;;;;;;;10.50;10.50;;;;;32.02;49.16;100783.88;4930329;28;44809;-89
2022/07/24 19:50:04;;;;;;;;;9.25;9.25;;;;;31.81;51.17;100796.31;4928715;28;44688;-89
2022/07/24 19:52:30;;;;;;;;;8.80;8.80;;;;;31.60;51.93;100790.38;4924181;28;45277;-89
2022/07/24 19:55:04;;;;;;;;;11.50;10.00;;;;;31.43;52.98;100794.94;4931134;28;45182;-92
2022/07/24 19:57:33;;;;;;;;;10.40;10.00;;;;;31.27;54.35;100798.38;4950892;28;44716;-91
2022/07/24 19:59:59;;;;;;;;;11.20;11.20;;;;;31.08;55.47;100792.13;4939863;28;44712;-91
2022/07/24 20:02:54;;;;;;;;;54.33;44.67;;;;;30.92;57.87;100793.66;4956521;28;44810;-91
2022/07/24 20:05:25;;;;;;;;;34.50;32.00;;;;;30.76;58.57;100794.34;4941604;28;45204;-90
2022/07/24 20:07:54;;;;;;;;;17.60;16.20;;;;;30.63;60.29;100795.34;4932132;28;44639;-92
2022/07/24 20:10:29;;;;;;;;;11.40;11.40;;;;;30.47;62.16;100791.34;4932349;28;44836;-92
2022/07/24 20:12:57;;;;;;;;;13.40;10.00;;;;;30.35;63.79;100796.78;4931830;28;44793;-91
2022/07/24 20:15:27;;;;;;;;;10.75;10.00;;;;;30.21;64.62;100795.28;4942286;28;45115;-91
2022/07/24 20:17:56;;;;;;;;;14.00;12.20;;;;;30.08;65.19;100796.28;4927590;28;44668;-92
2022/07/24 20:20:22;;;;;;;;;12.00;12.00;;;;;30.00;64.56;100798.47;4948597;28;44764;-91
2022/07/24 20:22:52;;;;;;;;;11.00;10.20;;;;;29.90;64.25;100802.59;4915149;28;44983;-92
2022/07/24 20:25:23;;;;;;;;;11.20;10.00;;;;;29.84;65.72;100805.41;4936068;28;45144;-91
2022/07/24 20:27:52;;;;;;;;;15.20;11.40;;;;;29.75;66.29;100802.13;4925530;28;44620;-91
2022/07/24 20:30:21;;;;;;;;;12.80;11.60;;;;;29.70;65.61;100805.56;4943902;28;44632;-92
2022/07/24 20:32:54;;;;;;;;;12.40;11.00;;;;;29.65;65.63;100815.53;4939533;28;44899;-92